Time;durP1;ratioP1;P1;durP2;ratioP2;P2;SDS_P1;SDS_P2;PMS_P1;PMS_P2;Temp;Humidity;BMP_temperature;BMP_pressure;BME280_temperature;BME280_humidity;BME280_pressure;Samples;Min_cycle;Max_cycle;Signal;HPM_P1;HPM_P2
2023/03/20 00:00:17;;;;;;;2.13;1.63;;;10.30;99.90;;;;;;5053521;28;20029;-69
2023/03/20 00:02:43;;;;;;;2.67;1.77;;;10.20;99.90;;;;;;5053852;28;20092;-69
2023/03/20 00:05:20;;;;;;;4.67;2.27;;;10.20;99.90;;;;;;5053122;28;20029;-69
2023/03/20 00:07:46;;;;;;;3.35;2.00;;;10.20;99.90;;;;;;5051706;28;20037;-70
2023/03/20 00:10:12;;;;;;;5.45;2.63;;;10.10;99.90;;;;;;5053168;28;20408;-69
2023/03/20 00:12:38;;;;;;;4.47;2.70;;;10.10;99.90;;;;;;5053402;28;20032;-69
2023/03/20 00:15:13;;;;;;;4.68;2.60;;;10.00;99.90;;;;;;5053762;28;20523;-69
2023/03/20 00:17:39;;;;;;;3.03;2.47;;;10.00;99.90;;;;;;5053519;28;20107;-69
2023/03/20 00:20:05;;;;;;;3.95;2.70;;;10.00;99.90;;;;;;5052890;28;20485;-69
2023/03/20 00:22:31;;;;;;;4.30;2.60;;;10.00;99.90;;;;;;5052342;28;20021;-70
2023/03/20 00:24:57;;;;;;;;;;;10.10;99.90;;;;;;5052153;28;20013;-69
2023/03/20 00:27:22;;;;;;;3.35;2.22;;;10.10;99.90;;;;;;5052918;28;19912;-69
2023/03/20 00:29:48;;;;;;;3.30;2.10;;;10.10;99.90;;;;;;5066606;28;20074;-69
2023/03/20 00:32:13;;;;;;;2.73;2.20;;;10.20;99.90;;;;;;5073276;28;20016;-69
2023/03/20 00:34:39;;;;;;;2.53;1.90;;;10.30;99.90;;;;;;5072595;28;20012;-69
2023/03/20 00:37:05;;;;;;;3.33;1.83;;;10.30;99.90;;;;;;5072423;28;20042;-70
2023/03/20 00:39:31;;;;;;;3.45;1.90;;;10.30;99.90;;;;;;5073447;28;20025;-69
2023/03/20 00:42:00;;;;;;;3.20;2.20;;;10.30;99.90;;;;;;5055661;28;20029;-69
2023/03/20 00:44:39;;;;;;;4.28;1.80;;;10.30;99.90;;;;;;5053880;28;20021;-69
2023/03/20 00:47:25;;;;;;;1.98;1.60;;;10.30;99.90;;;;;;5056856;28;20148;-69
2023/03/20 00:49:53;;;;;;;3.23;1.83;;;10.30;99.90;;;;;;5059127;28;20070;-68
2023/03/20 00:52:20;;;;;;;2.58;1.65;;;10.20;99.90;;;;;;5059202;28;20271;-69
2023/03/20 00:54:46;;;;;;;3.28;1.83;;;10.20;99.90;;;;;;5062572;28;20048;-69
2023/03/20 00:57:19;;;;;;;3.23;1.67;;;10.10;99.90;;;;;;5084698;28;20591;-69
2023/03/20 00:59:52;;;;;;;2.55;1.40;;;10.20;99.90;;;;;;5086616;28;20059;-69
2023/03/20 01:02:18;;;;;;;2.28;1.75;;;10.10;99.90;;;;;;5086795;28;20046;-68
2023/03/20 01:04:44;;;;;;;2.08;1.63;;;10.10;99.90;;;;;;5086412;28;20075;-69
2023/03/20 01:07:12;;;;;;;5.67;3.37;;;10.10;99.90;;;;;;5067450;28;20037;-69
2023/03/20 01:09:38;;;;;;;5.22;3.10;;;10.10;99.90;;;;;;5065820;28;20072;-69
2023/03/20 01:12:06;;;;;;;3.23;1.50;;;10.10;99.90;;;;;;5062830;28;20084;-68
2023/03/20 01:14:32;;;;;;;3.50;2.20;;;10.10;99.90;;;;;;5065584;28;20029;-68
2023/03/20 01:16:58;;;;;;;3.38;1.92;;;10.20;99.90;;;;;;5069130;28;20025;-69
2023/03/20 01:19:23;;;;;;;3.07;1.87;;;10.20;99.90;;;;;;5070051;28;20071;-69
2023/03/20 01:21:49;;;;;;;2.33;1.30;;;10.30;99.90;;;;;;5070073;28;20051;-69
2023/03/20 01:24:15;;;;;;;2.00;1.45;;;10.30;99.90;;;;;;5067450;28;20032;-68
2023/03/20 01:26:43;;;;;;;2.00;1.42;;;10.30;99.90;;;;;;5054633;28;20504;-69
2023/03/20 01:29:24;;;;;;;2.28;1.30;;;10.30;99.90;;;;;;5055888;28;20025;-70
2023/03/20 01:31:51;;;;;;;3.65;1.55;;;10.30;99.90;;;;;;5055773;28;20089;-69
2023/03/20 01:34:18;;;;;;;3.05;1.20;;;10.20;99.90;;;;;;5055982;28;20077;-69
2023/03/20 01:36:55;;;;;;;1.90;1.30;;;10.30;99.90;;;;;;5055019;28;20025;-69
2023/03/20 01:39:27;;;;;;;2.35;1.27;;;10.30;99.90;;;;;;5054553;28;20095;-69
2023/03/20 01:41:53;;;;;;;1.88;1.45;;;10.40;99.90;;;;;;5064059;28;20028;-69
2023/03/20 01:44:26;;;;;;;2.40;1.23;;;10.50;99.90;;;;;;5068866;28;20094;-70
2023/03/20 01:46:52;;;;;;;3.30;1.50;;;10.50;99.90;;;;;;5068489;28;20033;-69
2023/03/20 01:49:18;;;;;;;2.08;1.10;;;10.50;99.90;;;;;;5068575;28;20084;-69
2023/03/20 01:51:44;;;;;;;1.57;1.10;;;10.60;99.90;;;;;;5067898;28;20047;-69
2023/03/20 01:54:19;;;;;;;1.58;1.23;;;10.60;99.90;;;;;;5063188;28;20096;-68
2023/03/20 01:56:57;;;;;;;1.75;1.30;;;10.60;99.90;;;;;;5056853;28;20044;-69
2023/03/20 01:59:28;;;;;;;2.67;1.45;;;10.60;99.90;;;;;;5062791;28;20028;-69
2023/03/20 02:01:55;;;;;;;3.90;1.60;;;10.50;99.90;;;;;;5060112;28;20516;-69
2023/03/20 02:04:26;;;;;;;2.55;1.23;;;10.50;99.90;;;;;;5062959;28;20518;-69
2023/03/20 02:06:51;;;;;;;2.20;1.48;;;10.40;99.90;;;;;;5075261;28;20033;-69
2023/03/20 02:09:18;;;;;;;4.17;1.30;;;10.60;99.90;;;;;;5056127;28;20031;-68
2023/03/20 02:11:45;;;;;;;1.92;1.40;;;10.50;99.90;;;;;;5055270;28;20366;-68
2023/03/20 02:14:12;;;;;;;2.60;1.65;;;10.50;99.90;;;;;;5057644;28;20385;-70
2023/03/20 02:16:37;;;;;;;2.08;1.20;;;10.50;99.90;;;;;;5053619;28;20543;-68
2023/03/20 02:19:06;;;;;;;2.92;1.40;;;10.50;99.90;;;;;;5054815;28;20032;-70
2023/03/20 02:21:49;;;;;;;3.70;1.58;;;10.60;99.90;;;;;;5056229;28;20033;-70
2023/03/20 02:24:48;;;;;;;5.50;1.90;;;10.60;99.90;;;;;;5054231;28;20025;-70
2023/03/20 02:27:23;;;;;;;2.10;1.67;;;10.50;99.90;;;;;;5056107;28;20469;-69
2023/03/20 02:30:08;;;;;;;2.20;1.35;;;10.50;99.90;;;;;;5060709;28;20100;-69
2023/03/20 02:32:53;;;;;;;1.77;1.30;;;10.50;99.90;;;;;;5059845;28;20046;-69
2023/03/20 02:35:46;;;;;;;2.45;1.90;;;10.60;99.90;;;;;;5054989;28;20501;-69
2023/03/20 02:38:36;;;;;;;3.03;1.77;;;10.60;99.90;;;;;;5058811;28;20028;-70
2023/03/20 02:41:13;;;;;;;3.17;2.00;;;10.60;99.90;;;;;;5059499;28;20021;-69
2023/03/20 02:44:27;;;;;;;4.18;2.15;;;10.60;99.90;;;;;;5057565;28;20109;-69
2023/03/20 02:47:03;;;;;;;3.03;2.20;;;10.60;99.90;;;;;;5072756;28;20037;-69
2023/03/20 02:49:56;;;;;;;3.30;2.30;;;10.70;99.90;;;;;;5073319;28;20029;-69
2023/03/20 02:52:42;;;;;;;3.67;2.20;;;10.60;99.90;;;;;;5071722;28;20099;-69
2023/03/20 02:55:29;;;;;;;5.30;2.50;;;10.60;99.90;;;;;;5072690;28;20381;-69
2023/03/20 02:58:13;;;;;;;4.10;2.80;;;10.50;99.90;;;;;;5072525;28;20028;-69
2023/03/20 03:00:48;;;;;;;4.05;3.35;;;10.50;99.90;;;;;;5055969;28;20500;-69
2023/03/20 03:03:16;;;;;;;4.57;3.15;;;10.40;99.90;;;;;;5055926;28;20094;-69
2023/03/20 03:06:11;;;;;;;5.45;3.58;;;10.40;99.90;;;;;;5078647;28;20024;-69
2023/03/20 03:08:42;;;;;;;4.57;3.90;;;10.30;99.90;;;;;;5072706;28;20512;-69
2023/03/20 03:11:09;;;;;;;6.65;4.25;;;10.30;99.90;;;;;;5072542;28;20115;-69
2023/03/20 03:13:56;;;;;;;4.78;3.80;;;10.20;99.90;;;;;;5055209;28;20204;-69
2023/03/20 03:16:49;;;;;;;5.95;4.18;;;10.20;99.90;;;;;;5071124;28;20098;-69
2023/03/20 03:19:19;;;;;;;5.72;4.60;;;10.30;99.90;;;;;;5070077;28;20115;-69
2023/03/20 03:21:46;;;;;;;6.65;3.90;;;10.30;99.90;;;;;;5071785;28;20024;-69
2023/03/20 03:24:28;;;;;;;5.45;4.05;;;10.30;99.90;;;;;;5072529;28;20374;-69
2023/03/20 03:26:58;;;;;;;5.97;4.60;;;10.30;99.90;;;;;;5074271;28;20025;-69
2023/03/20 03:29:26;;;;;;;6.22;4.78;;;10.30;99.90;;;;;;5073872;28;20469;-69
2023/03/20 03:31:53;;;;;;;6.10;4.28;;;10.40;99.90;;;;;;5053154;28;20025;-69
2023/03/20 03:34:22;;;;;;;7.68;4.93;;;10.40;99.90;;;;;;5053355;28;20061;-69
2023/03/20 03:37:00;;;;;;;6.22;4.57;;;10.40;99.90;;;;;;5054604;28;20103;-69
2023/03/20 03:39:28;;;;;;;6.38;4.60;;;10.40;99.90;;;;;;5053324;28;20485;-69
2023/03/20 03:42:11;;;;;;;6.40;5.05;;;10.40;99.90;;;;;;5052685;28;20063;-69
2023/03/20 03:44:56;;;;;;;12.15;5.45;;;10.40;99.90;;;;;;5052298;28;20033;-68
2023/03/20 03:47:38;;;;;;;6.63;5.07;;;10.30;99.90;;;;;;5052915;28;20533;-68
2023/03/20 03:50:14;;;;;;;7.05;5.10;;;10.20;99.90;;;;;;5052193;28;20032;-68
2023/03/20 03:52:43;;;;;;;8.48;5.05;;;10.10;99.90;;;;;;5052584;28;20017;-69
2023/03/20 03:55:18;;;;;;;7.50;5.85;;;10.10;99.90;;;;;;5053404;28;20389;-69
2023/03/20 03:57:49;;;;;;;9.52;5.97;;;10.00;99.90;;;;;;5052743;28;20487;-69
2023/03/20 04:00:19;;;;;;;8.43;5.90;;;10.00;99.90;;;;;;5053035;28;20017;-68
2023/03/20 04:02:48;;;;;;;7.47;5.38;;;10.00;99.90;;;;;;5053548;28;20104;-68
2023/03/20 04:05:15;;;;;;;8.73;5.43;;;10.10;99.90;;;;;;5053134;28;20075;-69
2023/03/20 04:07:45;;;;;;;10.18;5.20;;;10.10;99.90;;;;;;5052137;28;20064;-68
2023/03/20 04:10:11;;;;;;;8.02;5.65;;;10.10;99.90;;;;;;5053077;28;20063;-68
2023/03/20 04:12:39;;;;;;;7.03;5.60;;;10.20;99.90;;;;;;5052875;28;20052;-68
2023/03/20 04:15:05;;;;;;;8.10;5.80;;;10.20;99.90;;;;;;5053490;28;20025;-68
2023/03/20 04:17:31;;;;;;;;;;;10.20;99.90;;;;;;5051314;28;20025;-69
2023/03/20 04:19:57;;;;;;;5.78;4.70;;;10.20;99.90;;;;;;5051889;28;19905;-68
2023/03/20 04:22:22;;;;;;;9.80;6.07;;;10.20;99.90;;;;;;5052083;28;20025;-69
2023/03/20 04:24:48;;;;;;;7.47;5.20;;;10.20;99.90;;;;;;5053028;28;20031;-68
2023/03/20 04:27:14;;;;;;;8.35;5.55;;;10.20;99.90;;;;;;5050863;28;20743;-68
2023/03/20 04:29:40;;;;;;;8.47;6.20;;;10.20;99.90;;;;;;5053124;28;20083;-68
2023/03/20 04:32:06;;;;;;;9.25;6.15;;;10.30;99.90;;;;;;5052559;28;20017;-68
2023/03/20 04:34:31;;;;;;;11.27;6.65;;;10.30;99.90;;;;;;5052693;28;20029;-69
2023/03/20 04:36:59;;;;;;;11.02;6.68;;;10.20;99.90;;;;;;5053182;28;20422;-69
2023/03/20 04:39:25;;;;;;;11.00;6.93;;;10.10;99.90;;;;;;5053373;28;20420;-69
2023/03/20 04:41:51;;;;;;;8.95;6.35;;;10.20;99.90;;;;;;5053128;28;20037;-68
2023/03/20 04:44:16;;;;;;;9.80;6.40;;;10.20;99.90;;;;;;5052772;28;20040;-70
2023/03/20 04:46:42;;;;;;;9.43;6.43;;;10.30;99.90;;;;;;5052532;28;20063;-69
2023/03/20 04:49:07;;;;;;;11.40;7.57;;;10.20;99.90;;;;;;5054116;28;20039;-68
2023/03/20 04:51:32;;;;;;;11.70;8.60;;;10.20;99.90;;;;;;5055386;28;20032;-69
2023/03/20 04:53:58;;;;;;;10.83;8.20;;;10.10;99.90;;;;;;5057600;28;20479;-69
2023/03/20 04:56:23;;;;;;;13.53;8.87;;;10.10;99.90;;;;;;5055395;28;20021;-69
2023/03/20 04:58:49;;;;;;;15.00;9.53;;;10.10;99.90;;;;;;5056852;28;20025;-68
2023/03/20 05:01:15;;;;;;;12.80;9.07;;;10.00;99.90;;;;;;5057107;28;20025;-69
2023/03/20 05:03:40;;;;;;;11.73;8.83;;;10.10;99.90;;;;;;5056953;28;20029;-69
2023/03/20 05:06:06;;;;;;;13.57;9.83;;;10.00;99.90;;;;;;5055434;28;20028;-69
2023/03/20 05:08:31;;;;;;;13.27;9.45;;;10.10;99.90;;;;;;5056649;28;20101;-69
2023/03/20 05:10:57;;;;;;;14.87;10.20;;;10.20;99.90;;;;;;5057020;28;20029;-69
2023/03/20 05:13:22;;;;;;;12.37;9.47;;;10.20;99.90;;;;;;5067218;28;20169;-69
2023/03/20 05:15:48;;;;;;;13.27;9.70;;;10.10;99.90;;;;;;5076324;28;20056;-70
2023/03/20 05:18:14;;;;;;;16.33;9.82;;;10.10;99.90;;;;;;5076154;28;20047;-69
2023/03/20 05:20:39;;;;;;;11.60;9.23;;;10.20;99.90;;;;;;5076397;28;20385;-69
2023/03/20 05:23:05;;;;;;;13.73;9.53;;;10.10;99.90;;;;;;5074831;28;20447;-69
2023/03/20 05:25:30;;;;;;;17.17;9.77;;;10.10;99.90;;;;;;5076572;28;20107;-69
2023/03/20 05:27:56;;;;;;;13.03;9.63;;;10.10;99.90;;;;;;5077863;28;20393;-69
2023/03/20 05:30:21;;;;;;;16.73;10.80;;;10.20;99.90;;;;;;5076612;28;20382;-68
2023/03/20 05:32:51;;;;;;;14.33;10.13;;;10.20;99.90;;;;;;5078022;28;20017;-67
2023/03/20 05:35:17;;;;;;;15.25;11.45;;;10.20;99.90;;;;;;5056392;28;20025;-69
2023/03/20 05:37:43;;;;;;;15.02;10.65;;;10.20;99.90;;;;;;5056020;28;20021;-69
2023/03/20 05:40:14;;;;;;;16.48;11.77;;;10.20;99.90;;;;;;5056445;28;20367;-71
2023/03/20 05:42:39;;;;;;;15.48;11.02;;;10.30;99.90;;;;;;5060840;28;20055;-69
2023/03/20 05:45:06;;;;;;;15.77;10.43;;;10.30;99.90;;;;;;5076277;28;20078;-69
2023/03/20 05:47:31;;;;;;;16.00;10.90;;;10.20;99.90;;;;;;5074471;28;20032;-70
2023/03/20 05:49:57;;;;;;;17.70;11.37;;;10.20;99.90;;;;;;5075950;28;20036;-70
2023/03/20 05:52:23;;;;;;;18.07;10.90;;;10.20;99.90;;;;;;5075106;28;20044;-69
2023/03/20 05:54:48;;;;;;;17.33;11.85;;;10.30;99.90;;;;;;5070100;28;20032;-68
2023/03/20 05:57:14;;;;;;;18.17;10.70;;;10.20;99.90;;;;;;5074624;28;20086;-69
2023/03/20 05:59:40;;;;;;;18.15;11.90;;;10.30;99.90;;;;;;5074742;28;20091;-70
2023/03/20 06:02:06;;;;;;;17.93;10.90;;;10.30;99.90;;;;;;5075038;28;20028;-68
2023/03/20 06:04:33;;;;;;;;;;;10.30;99.90;;;;;;5061242;28;20021;-68
2023/03/20 06:06:59;;;;;;;13.93;9.52;;;10.30;99.90;;;;;;5055323;28;19904;-69
2023/03/20 06:09:25;;;;;;;17.45;9.90;;;10.40;99.90;;;;;;5055443;28;20044;-70
2023/03/20 06:11:50;;;;;;;16.90;11.90;;;10.50;99.90;;;;;;5055378;28;20032;-69
2023/03/20 06:14:16;;;;;;;16.83;10.97;;;10.50;99.90;;;;;;5055458;28;20379;-70
2023/03/20 06:16:41;;;;;;;17.50;11.87;;;10.60;99.90;;;;;;5055742;28;20174;-70
2023/03/20 06:19:07;;;;;;;17.10;12.07;;;10.70;99.90;;;;;;5056349;28;20086;-67
2023/03/20 06:21:32;;;;;;;20.00;12.43;;;10.80;99.90;;;;;;5056153;28;20083;-70
2023/03/20 06:23:58;;;;;;;19.53;12.83;;;10.80;99.90;;;;;;5070312;28;20032;-69
2023/03/20 06:26:24;;;;;;;16.92;11.57;;;10.80;99.90;;;;;;5075540;28;20139;-68
2023/03/20 06:28:50;;;;;;;19.85;12.93;;;10.80;99.90;;;;;;5075226;28;20028;-70
2023/03/20 06:31:16;;;;;;;19.70;12.40;;;10.80;99.90;;;;;;5076086;28;20066;-70
2023/03/20 06:33:41;;;;;;;20.85;12.18;;;10.90;99.90;;;;;;5075929;28;20381;-67
2023/03/20 06:36:07;;;;;;;19.38;11.80;;;10.80;99.90;;;;;;5070026;28;20053;-66
2023/03/20 06:38:33;;;;;;;60.97;31.98;;;10.80;99.90;;;;;;5064881;28;20131;-66
2023/03/20 06:40:59;;;;;;;24.35;13.60;;;10.90;99.90;;;;;;5071116;28;20120;-66
2023/03/20 06:43:24;;;;;;;18.37;11.90;;;10.90;99.90;;;;;;5069274;28;20599;-68
2023/03/20 06:45:50;;;;;;;18.63;11.57;;;10.90;99.90;;;;;;5074533;28;20024;-68
2023/03/20 06:48:20;;;;;;;17.80;12.37;;;10.90;99.90;;;;;;5066342;28;20488;-67
2023/03/20 06:50:49;;;;;;;18.17;11.90;;;10.90;99.90;;;;;;5074980;28;20021;-68
2023/03/20 06:53:15;;;;;;;18.85;10.93;;;10.90;99.90;;;;;;5064484;28;20025;-68
2023/03/20 06:55:42;;;;;;;19.98;12.98;;;10.80;99.90;;;;;;5053423;28;20017;-69
2023/03/20 06:58:07;;;;;;;16.42;11.30;;;10.80;99.90;;;;;;5052702;28;20028;-67
2023/03/20 07:00:33;;;;;;;18.40;12.10;;;10.80;99.90;;;;;;5054331;28;20366;-67
2023/03/20 07:02:59;;;;;;;20.98;12.70;;;10.80;99.90;;;;;;5054425;28;20029;-68
2023/03/20 07:05:24;;;;;;;20.70;14.00;;;10.90;99.90;;;;;;5053981;28;20500;-66
2023/03/20 07:07:50;;;;;;;19.63;11.70;;;10.90;99.90;;;;;;5053948;28;20272;-68
2023/03/20 07:10:16;;;;;;;20.90;12.37;;;11.00;99.90;;;;;;5054234;28;20037;-67
2023/03/20 07:12:42;;;;;;;21.63;13.50;;;11.00;99.90;;;;;;5053324;28;20251;-67
2023/03/20 07:15:08;;;;;;;20.55;12.60;;;11.10;99.90;;;;;;5053084;28;20021;-68
2023/03/20 07:17:34;;;;;;;18.85;12.75;;;11.10;99.90;;;;;;5053594;28;20025;-67
2023/03/20 07:20:00;;;;;;;36.90;21.52;;;11.20;99.90;;;;;;5053495;28;20064;-68
2023/03/20 07:22:28;;;;;;;20.30;12.15;;;11.10;99.90;;;;;;5053732;28;20547;-68
2023/03/20 07:24:53;;;;;;;16.95;12.00;;;11.00;99.90;;;;;;5052767;28;20410;-68
2023/03/20 07:27:20;;;;;;;16.73;11.83;;;11.10;99.90;;;;;;5053489;28;20021;-68
2023/03/20 07:29:45;;;;;;;17.48;11.77;;;11.10;99.90;;;;;;5053235;28;20474;-68
2023/03/20 07:32:11;;;;;;;17.07;10.80;;;11.10;99.90;;;;;;5053059;28;20167;-68
2023/03/20 07:34:36;;;;;;;17.03;12.00;;;11.10;99.90;;;;;;5053826;28;20732;-68
2023/03/20 07:37:03;;;;;;;15.63;10.57;;;11.10;99.90;;;;;;5053667;28;20060;-68
2023/03/20 07:39:29;;;;;;;15.80;11.20;;;11.00;99.90;;;;;;5051524;28;20040;-68
2023/03/20 07:41:55;;;;;;;15.98;11.25;;;11.00;99.90;;;;;;5054080;28;20033;-67
2023/03/20 07:44:20;;;;;;;17.27;10.27;;;11.00;99.90;;;;;;5055716;28;20108;-67
2023/03/20 07:46:46;;;;;;;17.43;10.67;;;11.10;99.90;;;;;;5053832;28;20481;-67
2023/03/20 07:49:13;;;;;;;16.55;11.32;;;11.20;99.90;;;;;;5053947;28;20091;-67
2023/03/20 07:51:39;;;;;;;17.08;10.55;;;11.30;99.90;;;;;;5052508;28;20393;-67
2023/03/20 07:54:05;;;;;;;14.37;9.70;;;11.60;99.90;;;;;;5053158;28;20083;-67
2023/03/20 07:56:30;;;;;;;12.15;9.02;;;11.80;99.90;;;;;;5053141;28;20028;-68
2023/03/20 07:58:56;;;;;;;12.68;9.25;;;12.00;99.90;;;;;;5053571;28;20040;-69
2023/03/20 08:01:22;;;;;;;13.38;9.15;;;12.10;99.90;;;;;;5052006;28;20025;-68
2023/03/20 08:03:47;;;;;;;14.33;9.57;;;12.30;99.90;;;;;;5051921;28;20033;-68
2023/03/20 08:06:13;;;;;;;15.10;10.27;;;12.50;99.90;;;;;;5052898;28;20452;-67
2023/03/20 08:08:39;;;;;;;15.40;10.40;;;12.70;99.90;;;;;;5052630;28;20039;-68
2023/03/20 08:11:04;;;;;;;16.93;9.90;;;12.70;99.90;;;;;;5053020;28;20553;-66
2023/03/20 08:13:30;;;;;;;14.85;9.45;;;12.80;99.90;;;;;;5052732;28;20060;-67
2023/03/20 08:15:55;;;;;;;11.03;8.73;;;13.00;99.90;;;;;;5051511;28;20075;-68
2023/03/20 08:18:21;;;;;;;15.53;9.23;;;13.00;99.90;;;;;;5053034;28;20033;-68
2023/03/20 08:20:49;;;;;;;15.70;10.77;;;13.20;99.90;;;;;;5053230;28;20028;-69
2023/03/20 08:23:15;;;;;;;16.25;9.10;;;13.30;99.90;;;;;;5053168;28;20033;-67
2023/03/20 08:25:40;;;;;;;11.68;8.93;;;13.40;99.90;;;;;;5055707;28;20029;-68
2023/03/20 08:28:06;;;;;;;17.08;9.85;;;13.40;99.90;;;;;;5057225;28;20094;-69
2023/03/20 08:30:32;;;;;;;14.05;8.63;;;13.60;99.90;;;;;;5057107;28;20021;-68
2023/03/20 08:32:57;;;;;;;16.73;9.03;;;13.70;99.90;;;;;;5057091;28;20029;-69
2023/03/20 08:35:24;;;;;;;11.87;7.83;;;13.70;99.90;;;;;;5055963;28;20306;-68
2023/03/20 08:37:49;;;;;;;11.13;8.32;;;13.70;99.90;;;;;;5057106;28;20260;-68
2023/03/20 08:40:15;;;;;;;12.48;8.38;;;13.70;99.90;;;;;;5056795;28;20029;-68
2023/03/20 08:42:41;;;;;;;13.15;8.75;;;13.90;99.90;;;;;;5056557;28;20078;-68
2023/03/20 08:45:07;;;;;;;9.43;7.32;;;14.10;99.90;;;;;;5055362;28;20119;-68
2023/03/20 08:47:33;;;;;;;13.65;7.95;;;14.30;99.90;;;;;;5056542;28;20500;-68
2023/03/20 08:49:58;;;;;;;12.67;8.03;;;14.50;99.90;;;;;;5056510;28;20059;-68
2023/03/20 08:52:26;;;;;;;16.70;8.67;;;14.50;99.90;;;;;;5057715;28;20025;-68
2023/03/20 08:54:51;;;;;;;13.93;8.18;;;14.50;99.90;;;;;;5056586;28;20021;-68
2023/03/20 08:57:17;;;;;;;11.73;7.47;;;14.40;99.90;;;;;;5056990;28;20048;-68
2023/03/20 08:59:42;;;;;;;9.43;7.40;;;14.30;99.90;;;;;;5057002;28;20033;-68
2023/03/20 09:02:10;;;;;;;9.83;7.60;;;14.20;99.90;;;;;;5056584;28;20425;-67
2023/03/20 09:04:36;;;;;;;11.90;7.93;;;14.20;99.90;;;;;;5056422;28;20432;-68
2023/03/20 09:07:02;;;;;;;10.33;7.30;;;14.40;99.90;;;;;;5055904;28;20021;-68
2023/03/20 09:09:28;;;;;;;10.40;6.75;;;14.30;99.90;;;;;;5055482;28;20075;-67
2023/03/20 09:11:55;;;;;;;8.88;6.85;;;14.20;99.90;;;;;;5055954;28;20095;-67
2023/03/20 09:14:22;;;;;;;11.07;7.43;;;14.10;99.90;;;;;;5056252;28;20375;-67
2023/03/20 09:16:47;;;;;;;11.05;6.95;;;14.40;99.90;;;;;;5055972;28;20017;-68
2023/03/20 09:19:13;;;;;;;12.73;7.65;;;14.50;99.90;;;;;;5055937;28;20097;-68
2023/03/20 09:21:39;;;;;;;12.33;7.60;;;14.20;99.90;;;;;;5055895;28;20033;-67
2023/03/20 09:24:05;;;;;;;12.68;7.10;;;13.60;99.90;;;;;;5055170;28;20496;-67
2023/03/20 09:26:30;;;;;;;11.68;6.88;;;13.20;99.90;;;;;;5055978;28;20438;-67
2023/03/20 09:28:56;;;;;;;10.30;7.03;;;13.10;99.90;;;;;;5054777;28;20032;-67
2023/03/20 09:31:22;;;;;;;10.83;6.47;;;13.40;99.90;;;;;;5056110;28;20021;-67
2023/03/20 09:33:47;;;;;;;9.23;6.78;;;13.70;99.90;;;;;;5055019;28;20516;-67
2023/03/20 09:36:14;;;;;;;12.98;6.95;;;13.60;99.90;;;;;;5054368;28;20040;-68
2023/03/20 09:38:41;;;;;;;12.25;6.72;;;13.40;99.90;;;;;;5055386;28;20099;-66
2023/03/20 09:41:35;;;;;;;11.32;6.60;;;13.40;99.90;;;;;;5054300;28;20060;-68
2023/03/20 09:44:15;;;;;;;9.60;5.97;;;13.50;99.90;;;;;;5054069;28;20031;-68
2023/03/20 09:47:25;;;;;;;11.80;6.40;;;13.90;99.90;;;;;;5055624;28;20017;-68
2023/03/20 09:50:09;;;;;;;9.80;6.25;;;14.70;99.90;;;;;;5045752;28;20032;-68
2023/03/20 09:52:58;;;;;;;10.63;5.85;;;15.70;99.90;;;;;;5054965;28;20155;-68
2023/03/20 09:55:35;;;;;;;10.35;5.25;;;18.20;99.90;;;;;;5055354;28;20105;-67
2023/03/20 09:58:09;;;;;;;6.82;4.30;;;21.50;93.70;;;;;;5055230;28;20063;-69
2023/03/20 10:00:35;;;;;;;10.68;5.32;;;23.00;88.20;;;;;;5055388;28;20558;-67
2023/03/20 10:03:14;;;;;;;7.55;5.15;;;23.80;83.00;;;;;;5054963;28;20029;-68
2023/03/20 10:06:01;;;;;;;8.10;5.25;;;23.20;81.20;;;;;;5054222;28;20473;-67
2023/03/20 10:08:29;;;;;;;;;;;23.60;80.00;;;;;;5055522;28;20057;-66
2023/03/20 10:11:30;;;;;;;7.05;4.80;;;22.70;78.90;;;;;;5055042;28;20301;-67
2023/03/20 10:14:10;;;;;;;8.15;4.57;;;21.70;82.40;;;;;;5055373;28;20051;-68
2023/03/20 10:16:45;;;;;;;7.20;5.43;;;21.70;82.50;;;;;;5055434;28;20043;-67
2023/03/20 10:19:13;;;;;;;5.97;4.40;;;20.90;83.50;;;;;;5055165;28;20039;-67
2023/03/20 10:21:44;;;;;;;6.50;4.70;;;22.20;82.10;;;;;;5055008;28;20103;-67
2023/03/20 10:24:37;;;;;;;5.45;4.20;;;24.30;77.40;;;;;;5056186;28;20424;-67
2023/03/20 10:27:19;;;;;;;5.60;4.05;;;25.40;74.10;;;;;;5054693;28;20032;-68
2023/03/20 10:29:56;;;;;;;5.78;3.63;;;26.10;71.30;;;;;;5055035;28;20031;-68
2023/03/20 10:32:47;;;;;;;6.80;4.05;;;26.80;68.30;;;;;;5055282;28;20052;-67
2023/03/20 10:35:30;;;;;;;5.53;3.70;;;26.80;65.50;;;;;;5051316;28;20063;-68
2023/03/20 10:38:33;;;;;;;7.15;3.40;;;26.60;65.50;;;;;;5052924;28;20017;-68
2023/03/20 10:40:59;;;;;;;5.68;3.58;;;25.30;65.50;;;;;;5054396;28;20057;-69
2023/03/20 10:43:33;;;;;;;5.70;3.72;;;24.40;67.60;;;;;;5053247;28;20121;-68
2023/03/20 10:46:12;;;;;;;11.88;4.20;;;24.10;68.40;;;;;;5054455;28;20025;-68
2023/03/20 10:49:07;;;;;;;7.13;4.20;;;24.60;67.60;;;;;;5053338;28;20029;-68
2023/03/20 10:51:44;;;;;;;6.78;4.18;;;24.20;67.50;;;;;;5054171;28;20122;-67
2023/03/20 10:54:21;;;;;;;5.13;3.75;;;23.50;69.10;;;;;;5054641;28;20167;-67
2023/03/20 10:56:49;;;;;;;5.53;3.78;;;23.30;69.70;;;;;;5053805;28;20082;-68
2023/03/20 10:59:39;;;;;;;7.78;4.20;;;24.00;69.10;;;;;;5054001;28;20045;-67
2023/03/20 11:02:11;;;;;;;6.22;4.20;;;24.70;68.30;;;;;;5054230;28;20020;-67
2023/03/20 11:04:37;;;;;;;5.75;4.07;;;23.40;68.20;;;;;;5054247;28;20489;-68
2023/03/20 11:07:31;;;;;;;7.03;5.03;;;21.60;71.80;;;;;;5053949;28;20082;-67
2023/03/20 11:10:09;;;;;;;8.43;5.28;;;20.30;74.50;;;;;;5054720;28;20057;-66
2023/03/20 11:12:38;;;;;;;6.82;4.15;;;18.80;77.80;;;;;;5054784;28;20063;-68
2023/03/20 11:15:29;;;;;;;7.90;4.10;;;18.10;80.80;;;;;;5054714;28;20052;-67
2023/03/20 11:18:04;;;;;;;16.70;6.60;;;17.80;81.60;;;;;;5055083;28;20022;-66
2023/03/20 11:20:38;;;;;;;8.27;4.10;;;17.40;82.70;;;;;;5052076;28;20025;-66
2023/03/20 11:23:06;;;;;;;6.72;3.55;;;17.10;83.20;;;;;;5054156;28;20033;-68
2023/03/20 11:25:37;;;;;;;9.48;4.13;;;17.00;83.90;;;;;;5052741;28;20024;-67
2023/03/20 11:28:25;;;;;;;5.88;3.60;;;17.10;84.40;;;;;;5052105;28;20033;-67
2023/03/20 11:30:57;;;;;;;5.65;3.33;;;17.10;84.20;;;;;;5053737;28;20040;-68
2023/03/20 11:33:26;;;;;;;4.97;3.20;;;17.40;83.60;;;;;;5053514;28;20108;-67
2023/03/20 11:35:55;;;;;;;6.13;4.00;;;17.60;83.10;;;;;;5053137;28;20036;-67
2023/03/20 11:38:21;;;;;;;6.10;3.78;;;17.40;83.60;;;;;;5053210;28;20021;-67
2023/03/20 11:40:48;;;;;;;5.57;3.70;;;17.30;84.10;;;;;;5052048;28;20117;-67
2023/03/20 11:43:19;;;;;;;6.72;3.85;;;17.00;84.50;;;;;;5053409;28;20247;-67
2023/03/20 11:45:49;;;;;;;8.18;4.35;;;16.80;85.70;;;;;;5053755;28;20100;-67
2023/03/20 11:48:23;;;;;;;6.38;3.67;;;16.70;86.30;;;;;;5054160;28;20031;-67
2023/03/20 11:51:09;;;;;;;7.65;4.18;;;16.60;86.40;;;;;;5052193;28;20045;-67
2023/03/20 11:53:39;;;;;;;6.13;3.90;;;15.90;88.90;;;;;;5053329;28;20025;-66
2023/03/20 11:56:23;;;;;;;7.70;4.05;;;15.80;89.50;;;;;;5052621;28;20029;-67
2023/03/20 11:59:10;;;;;;;8.10;3.88;;;15.60;90.20;;;;;;5054701;28;20028;-68
2023/03/20 12:01:45;;;;;;;;;;;15.50;90.50;;;;;;5055390;28;20326;-67
2023/03/20 12:04:33;;;;;;;5.75;3.90;;;15.70;90.40;;;;;;5052609;28;19952;-67
2023/03/20 12:07:21;;;;;;;6.03;3.95;;;15.90;90.10;;;;;;5053109;28;20032;-67
2023/03/20 12:10:04;;;;;;;6.28;3.92;;;16.10;89.90;;;;;;5053365;28;20056;-68
2023/03/20 12:12:59;;;;;;;6.35;4.47;;;16.30;88.60;;;;;;5053081;28;20052;-66
2023/03/20 12:15:41;;;;;;;5.38;3.97;;;16.20;88.90;;;;;;5053165;28;20428;-68
2023/03/20 12:18:27;;;;;;;7.30;3.80;;;16.40;89.00;;;;;;5052951;28;20028;-68
2023/03/20 12:21:19;;;;;;;5.43;3.43;;;16.20;88.10;;;;;;5052911;28;20174;-67
2023/03/20 12:24:10;;;;;;;7.40;4.05;;;16.20;88.70;;;;;;5052060;28;20282;-67
2023/03/20 12:26:43;;;;;;;6.05;4.05;;;16.20;88.90;;;;;;5052895;28;20069;-67
2023/03/20 12:29:46;;;;;;;4.00;3.15;;;16.00;89.80;;;;;;5052148;28;20052;-67
2023/03/20 12:32:20;;;;;;;6.78;3.38;;;16.10;90.00;;;;;;5052882;28;20055;-68
2023/03/20 12:34:52;;;;;;;5.53;3.85;;;16.20;90.00;;;;;;5051250;28;20039;-67
2023/03/20 12:37:18;;;;;;;4.60;3.53;;;16.30;89.40;;;;;;5052360;28;20113;-66
2023/03/20 12:39:49;;;;;;;8.95;3.50;;;16.20;89.50;;;;;;5051123;28;20049;-67
2023/03/20 12:42:45;;;;;;;5.13;3.20;;;16.20;89.40;;;;;;5052777;28;20033;-67
2023/03/20 12:45:18;;;;;;;6.88;3.95;;;16.00;89.70;;;;;;5052650;28;20024;-68
2023/03/20 12:47:44;;;;;;;5.57;3.50;;;16.00;90.10;;;;;;5053288;28;20025;-67
2023/03/20 12:50:42;;;;;;;6.30;2.93;;;16.20;89.80;;;;;;5050643;28;20017;-67
2023/03/20 12:53:13;;;;;;;3.55;2.67;;;16.30;87.60;;;;;;5052550;28;20071;-68
2023/03/20 12:56:09;;;;;;;4.38;3.00;;;16.40;87.40;;;;;;5051687;28;20028;-68
2023/03/20 12:58:53;;;;;;;6.10;2.70;;;16.30;87.10;;;;;;5052893;28;20032;-67
2023/03/20 13:01:27;;;;;;;4.63;2.28;;;16.20;86.60;;;;;;5052251;28;20021;-67
2023/03/20 13:04:20;;;;;;;5.38;2.47;;;16.00;87.20;;;;;;5053119;28;20478;-66